createdAt,value
2022-08-05T00:00:17.271Z,75.46
2022-08-05T00:02:51.525Z,74.73
2022-08-05T00:06:02.699Z,74.79
2022-08-05T00:08:32.603Z,75.26
2022-08-05T00:11:00.215Z,76.18
2022-08-05T00:13:38.082Z,75.68
2022-08-05T00:16:09.612Z,76.14
2022-08-05T00:18:42.088Z,76.36
2022-08-05T00:21:10.281Z,76.45
2022-08-05T00:23:46.267Z,76.92
2022-08-05T00:26:21.991Z,77.37
2022-08-05T00:28:50.469Z,77.55
2022-08-05T00:31:53.064Z,77.13
2022-08-05T00:34:53.258Z,77.58
2022-08-05T00:37:11.071Z,77.97
2022-08-05T00:39:44.282Z,77.77
2022-08-05T00:42:33.106Z,78.29
2022-08-05T00:45:01.038Z,78.71
2022-08-05T00:47:53.160Z,78.94
2022-08-05T00:50:16.606Z,78.74
2022-08-05T00:52:45.521Z,79.05
2022-08-05T00:55:15.972Z,78.97
2022-08-05T00:57:58.720Z,79.27
2022-08-05T01:00:27.937Z,79.38
2022-08-05T01:02:56.104Z,80.29
2022-08-05T01:05:24.365Z,81.39
2022-08-05T01:08:40.188Z,81.46
2022-08-05T01:10:51.633Z,82.06
2022-08-05T01:13:59.010Z,82.21
2022-08-05T01:16:26.219Z,82.30
2022-08-05T01:19:05.592Z,83.13
2022-08-05T01:22:08.015Z,83.18
2022-08-05T01:24:57.413Z,82.45
2022-08-05T01:27:55.621Z,82.61
2022-08-05T01:30:33.820Z,81.86
2022-08-05T01:33:08.330Z,81.63
2022-08-05T01:35:52.038Z,82.22
2022-08-05T01:38:24.694Z,82.67
2022-08-05T01:40:58.705Z,82.57
2022-08-05T01:43:28.958Z,83.21
2022-08-05T01:46:07.362Z,83.75
2022-08-05T01:48:49.472Z,83.83
2022-08-05T01:51:19.033Z,83.91
2022-08-05T01:53:56.899Z,84.53
2022-08-05T01:58:11.072Z,84.29
2022-08-05T01:59:22.039Z,83.55
2022-08-05T02:01:55.732Z,83.64
2022-08-05T02:04:28.677Z,83.15
2022-08-05T02:06:58.697Z,82.87
2022-08-05T02:09:27.096Z,82.74
2022-08-05T02:12:04.208Z,82.98
2022-08-05T02:14:34.503Z,82.47
2022-08-05T02:17:07.949Z,82.07
2022-08-05T02:19:49.294Z,81.86
2022-08-05T02:22:25.588Z,81.61
2022-08-05T02:25:00.064Z,81.52
2022-08-05T02:27:58.586Z,81.64
2022-08-05T02:30:19.083Z,81.64
2022-08-05T02:32:51.601Z,81.71
2022-08-05T02:35:27.933Z,81.64
2022-08-05T02:38:00.278Z,82.13
2022-08-05T02:40:31.150Z,82.35
2022-08-05T02:43:00.792Z,82.71
2022-08-05T02:45:52.738Z,82.95
2022-08-05T02:48:20.495Z,82.69
2022-08-05T02:50:59.614Z,82.48
2022-08-05T02:53:39.103Z,83.02
2022-08-05T02:56:09.321Z,82.62
2022-08-05T02:58:38.406Z,82.51
2022-08-05T03:01:16.078Z,83.54
2022-08-05T03:04:03.413Z,83.51
2022-08-05T03:06:56.562Z,83.83
2022-08-05T03:09:37.519Z,83.28
2022-08-05T03:12:08.098Z,82.87
2022-08-05T03:14:45.652Z,83.53
2022-08-05T03:17:14.026Z,83.62
2022-08-05T03:19:45.532Z,83.56
2022-08-05T03:22:16.388Z,84.18
2022-08-05T03:24:49.046Z,83.23
2022-08-05T03:27:19.389Z,83.59
2022-08-05T03:30:07.746Z,83.08
2022-08-05T03:32:35.547Z,83.85
2022-08-05T03:35:06.389Z,84.10
2022-08-05T03:37:40.999Z,84.00
2022-08-05T03:40:24.580Z,83.66
2022-08-05T03:43:01.474Z,83.81
2022-08-05T03:45:57.606Z,84.37
2022-08-05T03:48:27.007Z,84.49
2022-08-05T03:52:34.963Z,84.47
2022-08-05T03:55:53.869Z,84.51
2022-08-05T03:56:47.748Z,84.44
2022-08-05T03:59:20.933Z,84.95
2022-08-05T04:01:52.177Z,85.16
2022-08-05T04:04:22.286Z,85.80
2022-08-05T04:06:56.657Z,85.77
2022-08-05T04:09:26.542Z,85.50
2022-08-05T04:11:56.375Z,84.57
2022-08-05T04:14:30.147Z,85.45
2022-08-05T04:17:00.441Z,85.55
2022-08-05T04:19:29.030Z,84.64
2022-08-05T04:22:10.119Z,85.11
2022-08-05T04:24:44.076Z,85.30
2022-08-05T04:27:12.382Z,84.83
2022-08-05T04:29:40.391Z,84.86
2022-08-05T04:32:08.900Z,84.39
2022-08-05T04:34:42.679Z,84.36
2022-08-05T04:37:12.710Z,85.22
2022-08-05T04:39:40.758Z,84.42
2022-08-05T04:42:09.496Z,84.82
2022-08-05T04:44:37.459Z,84.40
2022-08-05T04:47:09.533Z,84.41
2022-08-05T04:50:02.599Z,83.95
2022-08-05T04:52:38.145Z,83.64
2022-08-05T04:55:14.497Z,83.67
2022-08-05T04:57:47.937Z,82.20
2022-08-05T05:00:23.617Z,82.84
2022-08-05T05:02:51.722Z,83.40
2022-08-05T05:05:28.247Z,82.68
2022-08-05T05:08:02.508Z,82.57
2022-08-05T05:10:33.300Z,82.42
2022-08-05T05:13:04.345Z,83.14
2022-08-05T05:15:57.395Z,83.53
2022-08-05T05:18:31.242Z,82.91
2022-08-05T05:21:03.282Z,82.78
2022-08-05T05:23:39.310Z,83.19
2022-08-05T05:26:28.835Z,82.30
2022-08-05T05:29:00.715Z,82.37
2022-08-05T05:31:35.765Z,83.09
2022-08-05T05:34:02.333Z,83.72
2022-08-05T05:36:30.956Z,84.04
2022-08-05T05:39:03.849Z,83.37
2022-08-05T05:41:40.528Z,83.10
2022-08-05T05:44:35.485Z,83.21
2022-08-05T05:46:58.342Z,83.45
2022-08-05T05:49:32.009Z,83.74
2022-08-05T05:52:01.266Z,83.56
2022-08-05T05:54:51.077Z,84.52
2022-08-05T05:57:19.838Z,83.31
2022-08-05T05:59:48.767Z,83.34
2022-08-05T06:02:17.224Z,82.96
2022-08-05T06:05:01.216Z,83.37
2022-08-05T06:07:41.548Z,82.97
2022-08-05T06:10:11.845Z,82.62
2022-08-05T06:12:42.256Z,82.66
2022-08-05T06:15:16.204Z,83.59
2022-08-05T06:17:53.324Z,82.48
2022-08-05T06:20:22.348Z,82.05
2022-08-05T06:22:50.755Z,81.49
2022-08-05T06:25:25.055Z,81.23
2022-08-05T06:28:11.728Z,81.79
2022-08-05T06:30:48.866Z,82.01
2022-08-05T06:33:19.031Z,81.24
2022-08-05T06:36:07.684Z,80.77
2022-08-05T06:38:36.831Z,80.48
2022-08-05T06:41:08.015Z,81.13
2022-08-05T06:43:59.012Z,80.86
2022-08-05T06:46:30.233Z,80.25
2022-08-05T06:48:59.348Z,80.33
2022-08-05T06:51:29.467Z,80.12
2022-08-05T06:53:58.965Z,80.63
2022-08-05T06:56:28.237Z,79.86
2022-08-05T06:58:56.126Z,79.66
2022-08-05T07:01:32.069Z,78.59
2022-08-05T07:04:01.340Z,78.74
2022-08-05T07:06:30.238Z,78.99
2022-08-05T07:08:59.532Z,78.47
2022-08-05T07:11:37.017Z,78.22
2022-08-05T07:14:29.717Z,79.05
2022-08-05T07:17:58.677Z,78.62
2022-08-05T07:22:36.917Z,78.74
2022-08-05T07:25:54.287Z,78.47
2022-08-05T07:28:03.921Z,78.80
2022-08-05T07:30:38.517Z,78.86
2022-08-05T07:33:10.658Z,78.93
2022-08-05T07:36:05.227Z,79.24
2022-08-05T07:38:34.054Z,79.04
2022-08-05T07:42:08.541Z,80.48
2022-08-05T07:43:57.461Z,80.82
2022-08-05T07:46:26.777Z,79.22
2022-08-05T07:49:04.306Z,79.81
2022-08-05T07:51:48.991Z,80.26
2022-08-05T07:54:26.586Z,79.91
2022-08-05T07:57:14.734Z,79.60
2022-08-05T07:59:48.988Z,79.51
2022-08-05T08:02:18.080Z,79.54
2022-08-05T08:04:47.707Z,79.63
2022-08-05T08:07:17.853Z,79.92
2022-08-05T08:09:46.110Z,78.96
2022-08-05T08:12:35.158Z,78.72
2022-08-05T08:15:04.608Z,78.80
2022-08-05T08:17:32.970Z,78.93
2022-08-05T08:20:43.889Z,79.08
2022-08-05T08:22:53.237Z,79.63
2022-08-05T08:25:27.158Z,80.05
2022-08-05T08:28:18.542Z,79.87
2022-08-05T08:31:01.547Z,79.31
2022-08-05T08:33:37.751Z,79.43
2022-08-05T08:36:38.218Z,80.09
2022-08-05T08:38:57.011Z,79.42
2022-08-05T08:41:52.215Z,80.05
2022-08-05T08:45:19.417Z,80.21
2022-08-05T08:47:46.879Z,80.33
2022-08-05T08:50:23.110Z,80.71
2022-08-05T08:52:51.755Z,79.77
2022-08-05T08:56:03.175Z,79.55
2022-08-05T08:58:12.981Z,79.25
2022-08-05T09:00:42.928Z,78.98
2022-08-05T09:03:16.316Z,79.30
2022-08-05T09:06:09.189Z,77.95
2022-08-05T09:08:40.037Z,78.52
2022-08-05T09:11:13.687Z,78.59
2022-08-05T09:14:00.680Z,77.76
2022-08-05T09:16:31.036Z,77.51
2022-08-05T09:19:00.234Z,76.78
2022-08-05T09:22:22.171Z,76.83
2022-08-05T09:24:17.798Z,76.33
2022-08-05T09:26:51.861Z,75.75
2022-08-05T09:29:20.200Z,75.07
2022-08-05T09:32:45.857Z,74.79
2022-08-05T09:34:55.322Z,73.86
2022-08-05T09:38:13.054Z,74.10
2022-08-05T09:40:31.302Z,73.61
2022-08-05T09:43:00.375Z,73.62
2022-08-05T09:46:07.570Z,73.43
2022-08-05T09:48:29.535Z,72.79
2022-08-05T09:51:00.668Z,72.66
2022-08-05T09:53:54.703Z,73.70
2022-08-05T09:56:26.249Z,72.33
2022-08-05T09:58:58.105Z,70.15
2022-08-05T10:01:32.047Z,69.47
2022-08-05T10:04:03.562Z,69.53
2022-08-05T10:06:34.070Z,69.59
2022-08-05T10:09:24.956Z,67.89
2022-08-05T10:12:30.053Z,66.44
2022-08-05T10:15:13.797Z,66.66
2022-08-05T10:17:54.486Z,65.05
2022-08-05T10:20:25.179Z,67.19
2022-08-05T10:22:54.568Z,67.51
2022-08-05T10:25:26.308Z,64.38
2022-08-05T10:28:13.166Z,64.91
2022-08-05T10:32:59.315Z,62.67
2022-08-05T10:33:35.183Z,61.90
2022-08-05T10:36:04.905Z,62.15
2022-08-05T10:38:36.195Z,62.87
2022-08-05T10:41:14.600Z,61.50
2022-08-05T10:43:56.577Z,62.17
2022-08-05T10:46:44.630Z,62.16
2022-08-05T10:49:16.766Z,62.86
2022-08-05T10:51:59.851Z,62.88
2022-08-05T10:54:56.431Z,62.68
2022-08-05T10:57:30.888Z,62.17
2022-08-05T11:00:19.850Z,61.32
2022-08-05T11:03:23.805Z,62.38
2022-08-05T11:06:15.213Z,62.29
2022-08-05T11:09:32.386Z,61.90
2022-08-05T11:12:50.347Z,60.94
2022-08-05T11:16:00.475Z,62.16
2022-08-05T11:18:26.977Z,62.37
2022-08-05T11:20:57.392Z,62.77
2022-08-05T11:24:03.181Z,62.18
2022-08-05T11:26:28.207Z,60.75
2022-08-05T11:29:06.757Z,61.15
2022-08-05T11:31:54.230Z,61.53
2022-08-05T11:34:50.985Z,62.23
2022-08-05T11:38:30.194Z,60.43
2022-08-05T11:41:34.701Z,60.95
2022-08-05T11:44:06.032Z,60.28
2022-08-05T11:47:10.225Z,59.89
2022-08-05T11:49:27.254Z,59.99
2022-08-05T11:51:57.706Z,58.57
2022-08-05T11:54:33.383Z,57.25
2022-08-05T11:57:08.372Z,56.85
2022-08-05T11:59:52.054Z,55.79
2022-08-05T12:02:31.963Z,55.94
2022-08-05T12:05:07.203Z,54.50
2022-08-05T12:08:08.521Z,55.91
2022-08-05T12:10:43.273Z,56.10
2022-08-05T12:13:15.799Z,55.98
2022-08-05T12:15:49.819Z,56.19
2022-08-05T12:18:20.619Z,57.06
2022-08-05T12:20:52.070Z,58.02
2022-08-05T12:23:19.793Z,58.42
2022-08-05T12:25:52.496Z,58.10
2022-08-05T12:28:37.123Z,58.60
2022-08-05T12:31:06.627Z,58.22
2022-08-05T12:33:38.793Z,58.75
2022-08-05T12:36:09.194Z,58.06
2022-08-05T12:38:39.610Z,56.41
2022-08-05T12:41:13.354Z,55.09
2022-08-05T12:43:52.695Z,55.61
2022-08-05T12:46:28.064Z,54.98
2022-08-05T12:49:13.263Z,56.30
2022-08-05T12:52:14.355Z,55.75
2022-08-05T12:54:34.067Z,54.50
2022-08-05T12:57:04.448Z,54.07
2022-08-05T13:00:08.715Z,54.10
2022-08-05T13:02:33.011Z,52.79
2022-08-05T13:05:07.605Z,50.33
2022-08-05T13:07:59.547Z,49.32
2022-08-05T13:10:24.158Z,48.42
2022-08-05T13:12:58.516Z,49.76
2022-08-05T13:15:41.076Z,50.64
2022-08-05T13:18:10.507Z,50.75
2022-08-05T13:20:40.445Z,49.85
2022-08-05T13:23:08.599Z,50.42
2022-08-05T13:25:52.744Z,50.98
2022-08-05T13:28:24.115Z,51.35
2022-08-05T13:30:53.097Z,50.07
2022-08-05T13:34:23.041Z,50.94
2022-08-05T13:36:11.125Z,50.38
2022-08-05T13:38:43.061Z,49.19
2022-08-05T13:41:11.268Z,48.69
2022-08-05T13:43:44.247Z,47.56
2022-08-05T13:46:37.781Z,48.45
2022-08-05T13:49:11.516Z,46.69
2022-08-05T13:51:46.148Z,46.65
2022-08-05T13:54:15.892Z,47.57
2022-08-05T13:56:51.235Z,46.50
2022-08-05T13:59:24.070Z,46.75
2022-08-05T14:01:56.796Z,46.24
2022-08-05T14:04:43.860Z,44.24
2022-08-05T14:07:25.439Z,43.95
2022-08-05T14:10:12.048Z,42.35
2022-08-05T14:12:42.679Z,43.58
2022-08-05T14:16:08.517Z,43.28
2022-08-05T14:18:00.738Z,42.93
2022-08-05T14:20:29.454Z,41.02
2022-08-05T14:22:58.704Z,41.15
2022-08-05T14:25:28.090Z,40.66
2022-08-05T14:27:56.744Z,40.38
2022-08-05T14:30:27.982Z,40.56
2022-08-05T14:32:56.702Z,37.69
2022-08-05T14:35:49.921Z,36.61
2022-08-05T14:38:31.833Z,36.11
2022-08-05T14:41:06.249Z,37.58
2022-08-05T14:43:57.619Z,36.49
2022-08-05T14:46:28.410Z,36.41
2022-08-05T14:48:57.797Z,37.42
2022-08-05T14:51:30.815Z,37.17
2022-08-05T14:54:27.919Z,37.75
2022-08-05T14:56:48.804Z,37.07
2022-08-05T14:59:21.211Z,36.73
2022-08-05T15:01:49.914Z,36.85
2022-08-05T15:04:20.542Z,36.48
2022-08-05T15:06:51.029Z,36.43
2022-08-05T15:09:54.106Z,36.59
2022-08-05T15:12:11.671Z,36.61
2022-08-05T15:14:49.609Z,36.49
2022-08-05T15:17:47.302Z,37.74
2022-08-05T15:20:15.670Z,36.14
2022-08-05T15:22:52.134Z,36.16
2022-08-05T15:25:51.501Z,35.42
2022-08-05T15:28:13.386Z,36.02
2022-08-05T15:30:43.451Z,37.28
2022-08-05T15:33:11.964Z,35.45
2022-08-05T15:35:45.473Z,37.02
2022-08-05T15:38:33.952Z,36.27
2022-08-05T15:41:23.358Z,36.34
2022-08-05T15:43:50.849Z,36.77
2022-08-05T15:46:20.435Z,36.69
2022-08-05T15:48:58.700Z,35.33
2022-08-05T15:52:03.982Z,35.96
2022-08-05T15:54:17.952Z,35.83
2022-08-05T15:56:47.087Z,36.27
2022-08-05T15:59:21.806Z,35.38
2022-08-05T16:01:52.901Z,36.52
2022-08-05T16:04:25.409Z,36.35
2022-08-05T16:06:54.027Z,36.00
2022-08-05T16:09:23.593Z,35.59
2022-08-05T16:11:53.801Z,35.90
2022-08-05T16:14:22.282Z,35.90
2022-08-05T16:16:50.990Z,35.98
2022-08-05T16:20:03.307Z,35.29
2022-08-05T16:22:10.612Z,35.94
2022-08-05T16:24:41.626Z,36.18
2022-08-05T16:27:46.934Z,36.52
2022-08-05T16:30:25.593Z,36.41
2022-08-05T16:32:54.339Z,36.14
2022-08-05T16:35:27.625Z,36.66
2022-08-05T16:38:03.553Z,36.12
2022-08-05T16:40:51.846Z,37.23
2022-08-05T16:43:25.594Z,37.23
2022-08-05T16:46:03.762Z,36.68
2022-08-05T16:48:38.946Z,37.27
2022-08-05T16:51:09.235Z,37.85
2022-08-05T16:54:03.991Z,38.55
2022-08-05T16:56:27.198Z,38.62
2022-08-05T16:58:56.689Z,37.94
2022-08-05T17:01:24.892Z,37.83
2022-08-05T17:03:52.818Z,37.73
2022-08-05T17:06:20.931Z,37.47
2022-08-05T17:08:54.473Z,37.86
2022-08-05T17:11:25.105Z,37.80
2022-08-05T17:13:54.700Z,37.95
2022-08-05T17:16:36.433Z,38.46
2022-08-05T17:19:07.313Z,38.57
2022-08-05T17:21:37.247Z,38.18
2022-08-05T17:24:18.481Z,38.25
2022-08-05T17:26:55.568Z,38.96
2022-08-05T17:29:32.816Z,39.22
2022-08-05T17:32:03.310Z,39.08
2022-08-05T17:34:32.260Z,39.42
2022-08-05T17:37:04.449Z,38.88
2022-08-05T17:39:33.983Z,39.10
2022-08-05T17:42:19.137Z,39.42
2022-08-05T17:44:50.271Z,39.84
2022-08-05T17:47:22.122Z,40.16
2022-08-05T17:50:00.117Z,39.80
2022-08-05T17:52:32.453Z,40.19
2022-08-05T17:55:00.606Z,40.67
2022-08-05T17:57:31.327Z,40.34
2022-08-05T18:00:03.822Z,39.91
2022-08-05T18:02:35.554Z,40.37
2022-08-05T18:05:07.552Z,40.37
2022-08-05T18:07:41.781Z,40.46
2022-08-05T18:10:11.594Z,40.48
2022-08-05T18:12:48.373Z,40.89
2022-08-05T18:15:16.251Z,40.92
2022-08-05T18:18:01.596Z,40.77
2022-08-05T18:20:32.681Z,41.10
2022-08-05T18:23:11.417Z,41.31
2022-08-05T18:25:44.040Z,41.33
2022-08-05T18:28:16.613Z,41.79
2022-08-05T18:30:45.299Z,41.89
2022-08-05T18:33:14.784Z,42.50
2022-08-05T18:35:49.388Z,42.07
2022-08-05T18:38:19.384Z,42.22
2022-08-05T18:41:53.267Z,42.40
2022-08-05T18:43:43.224Z,43.14
2022-08-05T18:46:20.294Z,43.10
2022-08-05T18:48:52.304Z,42.16
2022-08-05T18:52:02.739Z,42.53
2022-08-05T18:54:25.529Z,43.38
2022-08-05T18:56:53.316Z,43.29
2022-08-05T18:59:42.840Z,43.67
2022-08-05T19:02:11.254Z,44.25
2022-08-05T19:05:02.671Z,44.99
2022-08-05T19:07:45.578Z,45.41
2022-08-05T19:10:14.905Z,45.69
2022-08-05T19:12:43.308Z,46.06
2022-08-05T19:15:56.788Z,46.33
2022-08-05T19:18:10.213Z,47.02
2022-08-05T19:20:46.949Z,47.14
2022-08-05T19:23:22.649Z,47.53
2022-08-05T19:26:03.227Z,47.52
2022-08-05T19:28:32.882Z,48.18
2022-08-05T19:31:01.356Z,48.81
2022-08-05T19:33:36.169Z,48.75
2022-08-05T19:36:07.019Z,48.62
2022-08-05T19:38:35.661Z,48.84
2022-08-05T19:41:07.037Z,48.95
2022-08-05T19:44:05.653Z,49.14
2022-08-05T19:46:30.305Z,48.88
2022-08-05T19:49:01.227Z,49.04
2022-08-05T19:52:05.390Z,49.33
2022-08-05T19:54:27.165Z,49.53
2022-08-05T19:56:59.982Z,49.84
2022-08-05T19:59:55.306Z,49.92
2022-08-05T20:02:18.886Z,50.04
2022-08-05T20:04:48.485Z,50.42
2022-08-05T20:07:48.826Z,50.35
2022-08-05T20:10:11.804Z,50.75
2022-08-05T20:12:46.023Z,50.61
2022-08-05T20:15:15.899Z,50.64
2022-08-05T20:18:10.750Z,50.85
2022-08-05T20:20:55.822Z,50.68
2022-08-05T20:23:39.873Z,50.90
2022-08-05T20:26:17.189Z,51.04
2022-08-05T20:28:47.938Z,51.42
2022-08-05T20:31:16.475Z,51.31
2022-08-05T20:33:45.157Z,51.83
2022-08-05T20:36:14.338Z,51.86
2022-08-05T20:38:54.524Z,51.93
2022-08-05T20:41:27.404Z,51.95
2022-08-05T20:44:17.551Z,52.02
2022-08-05T20:46:47.538Z,51.67
2022-08-05T20:49:24.213Z,51.10
2022-08-05T20:51:54.278Z,51.40
2022-08-05T20:54:25.314Z,51.63
2022-08-05T20:56:53.229Z,51.30
2022-08-05T20:59:26.466Z,50.94
2022-08-05T21:01:57.974Z,50.86
2022-08-05T21:04:26.906Z,50.99
2022-08-05T21:06:55.822Z,50.85
2022-08-05T21:09:25.083Z,51.07
2022-08-05T21:12:09.748Z,51.05
2022-08-05T21:14:38.840Z,51.19
2022-08-05T21:17:06.809Z,51.34
2022-08-05T21:19:46.939Z,50.95
2022-08-05T21:22:18.332Z,51.02
2022-08-05T21:24:51.908Z,51.22
2022-08-05T21:27:20.655Z,51.20
2022-08-05T21:29:54.046Z,51.10
2022-08-05T21:32:23.441Z,51.17
2022-08-05T21:34:56.045Z,51.56
2022-08-05T21:37:41.472Z,51.85
2022-08-05T21:40:14.189Z,51.78
2022-08-05T21:42:45.642Z,51.42
2022-08-05T21:45:24.271Z,51.96
2022-08-05T21:47:57.084Z,51.61
2022-08-05T21:50:26.048Z,51.50
2022-08-05T21:52:58.915Z,51.50
2022-08-05T21:56:01.758Z,51.54
2022-08-05T21:58:24.805Z,51.49
2022-08-05T22:00:58.620Z,51.66
2022-08-05T22:03:48.634Z,51.74
2022-08-05T22:06:14.178Z,51.69
2022-08-05T22:08:42.450Z,51.79
2022-08-05T22:11:15.613Z,52.08
2022-08-05T22:14:33.837Z,52.35
2022-08-05T22:16:42.080Z,52.17
2022-08-05T22:20:02.075Z,52.50
2022-08-05T22:22:08.732Z,52.44
2022-08-05T22:24:55.846Z,52.64
2022-08-05T22:28:09.061Z,52.62
2022-08-05T22:30:32.157Z,52.66
2022-08-05T22:33:03.469Z,52.87
2022-08-05T22:35:47.900Z,52.82
2022-08-05T22:38:16.996Z,52.97
2022-08-05T22:40:50.011Z,53.31
2022-08-05T22:43:36.872Z,53.03
2022-08-05T22:46:13.206Z,53.31
2022-08-05T22:48:50.865Z,53.54
2022-08-05T22:51:22.979Z,53.69
2022-08-05T22:53:57.669Z,53.67
2022-08-05T22:56:30.703Z,54.08
2022-08-05T22:59:03.129Z,54.32
2022-08-05T23:02:03.815Z,54.79
2022-08-05T23:04:21.126Z,54.63
2022-08-05T23:06:49.005Z,54.69
2022-08-05T23:09:27.308Z,54.90
2022-08-05T23:12:05.582Z,55.05
2022-08-05T23:14:35.256Z,55.32
2022-08-05T23:17:24.215Z,55.39
2022-08-05T23:20:02.416Z,55.62
2022-08-05T23:22:30.815Z,55.94
2022-08-05T23:24:59.262Z,55.66
2022-08-05T23:27:28.839Z,55.95
2022-08-05T23:30:01.707Z,56.08
2022-08-05T23:32:35.817Z,56.58
2022-08-05T23:35:03.618Z,56.54
2022-08-05T23:37:34.318Z,56.74
2022-08-05T23:40:07.872Z,56.91
2022-08-05T23:42:37.828Z,57.49
2022-08-05T23:45:14.082Z,57.35
2022-08-05T23:47:47.667Z,57.70
2022-08-05T23:50:17.143Z,58.17
2022-08-05T23:52:50.482Z,58.15
2022-08-05T23:55:19.852Z,58.38
2022-08-05T23:57:52.721Z,58.40
